Time;durP1;ratioP1;P1;durP2;ratioP2;P2;SDS_P1;SDS_P2;PMS_P1;PMS_P2;Temp;Humidity;BMP_temperature;BMP_pressure;BME280_temperature;BME280_humidity;BME280_pressure;Samples;Min_cycle;Max_cycle;Signal;HPM_P1;HPM_P2
2022/06/11 00:00:13;;;;;;;10.93;5.07;;;18.30;99.90;;;;;;5010203;28;20092;-72
2022/06/11 00:02:39;;;;;;;8.73;5.03;;;18.30;99.90;;;;;;4991906;28;20127;-71
2022/06/11 00:05:05;;;;;;;8.07;4.82;;;18.40;99.90;;;;;;4992456;28;20050;-71
2022/06/11 00:07:32;;;;;;;9.75;5.57;;;18.20;99.90;;;;;;5009377;28;20418;-71
2022/06/11 00:09:58;;;;;;;8.70;5.00;;;18.20;99.90;;;;;;5010738;28;20038;-72
2022/06/11 00:12:25;;;;;;;11.57;5.30;;;18.20;99.90;;;;;;4992745;28;20061;-72
2022/06/11 00:14:51;;;;;;;8.43;5.00;;;18.40;99.90;;;;;;5009249;28;20402;-72
2022/06/11 00:17:20;;;;;;;10.20;5.47;;;18.30;99.90;;;;;;5010013;28;20355;-72
2022/06/11 00:19:46;;;;;;;12.25;5.30;;;18.10;99.90;;;;;;5009969;28;20490;-71
2022/06/11 00:22:14;;;;;;;10.18;5.13;;;18.10;99.90;;;;;;4992725;28;20398;-71
2022/06/11 00:24:40;;;;;;;9.52;5.03;;;18.10;99.90;;;;;;5011312;28;20038;-72
2022/06/11 00:27:07;;;;;;;10.43;5.85;;;18.10;99.90;;;;;;5021729;28;20049;-71
2022/06/11 00:29:35;;;;;;;13.73;5.53;;;18.00;99.90;;;;;;5030838;28;20052;-71
2022/06/11 00:32:01;;;;;;;10.80;5.55;;;17.90;99.90;;;;;;5031463;28;20057;-71
2022/06/11 00:34:27;;;;;;;11.93;5.32;;;17.80;99.90;;;;;;5029742;28;20042;-71
2022/06/11 00:36:54;;;;;;;10.20;5.20;;;17.80;99.90;;;;;;5028528;28;20048;-71
2022/06/11 00:39:22;;;;;;;10.63;5.93;;;17.70;99.90;;;;;;5029462;28;20046;-71
2022/06/11 00:41:52;;;;;;;10.02;5.82;;;17.70;99.90;;;;;;5011716;28;20241;-71
2022/06/11 00:44:18;;;;;;;12.02;6.13;;;17.80;99.90;;;;;;5028953;28;20053;-71
2022/06/11 00:46:54;;;;;;;9.50;5.47;;;17.70;99.90;;;;;;5027988;28;20056;-72
2022/06/11 00:49:34;;;;;;;11.55;4.88;;;17.50;99.90;;;;;;5028837;28;20494;-71
2022/06/11 00:52:05;;;;;;;13.55;5.03;;;17.50;99.90;;;;;;5029478;28;20132;-71
2022/06/11 00:54:34;;;;;;;12.55;4.50;;;17.40;99.90;;;;;;5028794;28;20051;-71
2022/06/11 00:57:01;;;;;;;9.80;4.40;;;17.40;99.90;;;;;;5028960;28;20041;-71
2022/06/11 00:59:35;;;;;;;10.65;5.00;;;17.50;99.90;;;;;;5017245;28;20088;-71
2022/06/11 01:02:03;;;;;;;11.97;4.80;;;17.20;99.90;;;;;;5010949;28;20060;-72
2022/06/11 01:04:37;;;;;;;11.00;4.75;;;17.20;99.90;;;;;;5008912;28;20045;-72
2022/06/11 01:07:13;;;;;;;13.77;4.95;;;17.20;99.90;;;;;;5008882;28;20041;-71
2022/06/11 01:10:04;;;;;;;13.02;4.57;;;17.20;99.90;;;;;;4991167;28;20443;-71
2022/06/11 01:12:53;;;;;;;10.73;5.20;;;17.10;99.90;;;;;;5008465;28;20053;-72
2022/06/11 01:15:27;;;;;;;13.95;4.78;;;17.10;99.90;;;;;;5019820;28;20045;-71
2022/06/11 01:18:21;;;;;;;10.18;3.70;;;17.00;99.90;;;;;;5027617;28;20045;-71
2022/06/11 01:20:52;;;;;;;9.02;3.78;;;17.00;99.90;;;;;;5028549;28;20367;-72
2022/06/11 01:23:48;;;;;;;9.40;3.50;;;17.00;99.90;;;;;;5012812;28;20053;-71
2022/06/11 01:26:33;;;;;;;8.30;3.50;;;16.90;99.90;;;;;;5030636;28;20049;-71
2022/06/11 01:29:27;;;;;;;7.95;3.33;;;16.90;99.90;;;;;;5029168;28;20103;-71
2022/06/11 01:32:16;;;;;;;10.57;3.03;;;16.70;99.90;;;;;;5028440;28;20391;-71
2022/06/11 01:35:09;;;;;;;9.75;3.42;;;16.70;99.90;;;;;;4973786;28;20123;-72
2022/06/11 01:37:55;;;;;;;9.13;3.38;;;16.60;99.90;;;;;;5012699;28;20077;-71
2022/06/11 01:40:39;;;;;;;10.82;2.90;;;16.60;99.90;;;;;;5010379;28;20497;-71
2022/06/11 01:43:22;;;;;;;11.35;2.72;;;16.60;99.90;;;;;;5029971;28;20102;-71
2022/06/11 01:45:49;;;;;;;10.98;3.15;;;16.60;99.90;;;;;;5009800;28;20056;-71
2022/06/11 01:48:20;;;;;;;9.20;3.05;;;16.60;99.90;;;;;;5019713;28;20046;-71
2022/06/11 01:50:55;;;;;;;12.63;2.63;;;16.50;99.90;;;;;;4990833;28;20045;-71
2022/06/11 01:53:41;;;;;;;10.38;3.10;;;16.50;99.90;;;;;;4989768;28;20136;-71
2022/06/11 01:56:09;;;;;;;;;;;16.50;99.90;;;;;;5008486;28;20494;-72
2022/06/11 01:58:44;;;;;;;11.88;2.88;;;16.40;99.90;;;;;;4991324;28;19921;-71
2022/06/11 02:01:30;;;;;;;8.80;2.72;;;16.40;99.90;;;;;;5007073;28;20510;-72
2022/06/11 02:03:59;;;;;;;10.57;2.80;;;16.40;99.90;;;;;;4991723;28;20125;-71
2022/06/11 02:06:58;;;;;;;7.78;2.67;;;16.30;99.90;;;;;;5008228;28;20054;-71
2022/06/11 02:09:41;;;;;;;11.40;3.17;;;16.20;99.90;;;;;;4990454;28;20045;-71
2022/06/11 02:12:25;;;;;;;13.50;2.92;;;16.20;99.90;;;;;;5009011;28;20046;-71
2022/06/11 02:14:59;;;;;;;7.25;2.60;;;16.20;99.90;;;;;;4990554;28;20078;-71
2022/06/11 02:17:31;;;;;;;9.25;2.70;;;16.30;99.90;;;;;;5007817;28;20053;-71
2022/06/11 02:20:08;;;;;;;13.65;3.10;;;16.20;99.90;;;;;;4991981;28;20049;-71
2022/06/11 02:22:39;;;;;;;10.40;2.88;;;16.20;99.90;;;;;;5011610;28;20125;-71
2022/06/11 02:25:13;;;;;;;10.38;2.78;;;16.40;99.90;;;;;;5012650;28;20128;-71
2022/06/11 02:27:41;;;;;;;12.20;3.10;;;16.10;99.90;;;;;;4994146;28;20046;-71
2022/06/11 02:30:10;;;;;;;7.80;2.80;;;16.10;99.90;;;;;;5012421;28;20054;-71
2022/06/11 02:32:36;;;;;;;10.30;2.80;;;16.10;99.90;;;;;;5010972;28;20478;-71
2022/06/11 02:35:08;;;;;;;11.38;2.80;;;16.00;99.90;;;;;;4993827;28;20061;-71
2022/06/11 02:37:39;;;;;;;9.15;2.90;;;16.00;99.90;;;;;;4993536;28;20499;-71
2022/06/11 02:40:11;;;;;;;7.60;2.70;;;16.00;99.90;;;;;;5012148;28;20052;-71
2022/06/11 02:42:37;;;;;;;8.73;2.80;;;16.00;99.90;;;;;;5011397;28;20092;-71
2022/06/11 02:45:04;;;;;;;9.68;3.00;;;15.90;99.90;;;;;;4994644;28;20394;-70
2022/06/11 02:47:30;;;;;;;9.65;2.72;;;15.90;99.90;;;;;;5010347;28;20517;-71
2022/06/11 02:49:56;;;;;;;9.30;3.47;;;15.90;99.90;;;;;;5011460;28;20053;-71
2022/06/11 02:52:24;;;;;;;7.85;2.92;;;15.90;99.90;;;;;;4994101;28;20046;-71
2022/06/11 02:54:50;;;;;;;11.70;2.80;;;15.90;99.90;;;;;;5011566;28;20091;-71
2022/06/11 02:57:20;;;;;;;12.23;3.10;;;15.80;99.90;;;;;;5010863;28;20049;-70
2022/06/11 02:59:47;;;;;;;14.30;3.35;;;15.90;99.90;;;;;;5011805;28;20066;-70
2022/06/11 03:02:13;;;;;;;12.02;3.25;;;15.70;99.90;;;;;;5011137;28;20406;-71
2022/06/11 03:04:39;;;;;;;11.02;3.00;;;15.70;99.90;;;;;;4994570;28;20056;-72
2022/06/11 03:07:08;;;;;;;10.75;3.05;;;15.80;99.90;;;;;;5012233;28;20046;-71
2022/06/11 03:09:36;;;;;;;8.75;2.72;;;15.70;99.90;;;;;;5010843;28;20550;-71
2022/06/11 03:12:04;;;;;;;8.93;3.05;;;15.70;99.90;;;;;;5013321;28;20045;-70
2022/06/11 03:14:30;;;;;;;11.70;3.10;;;15.70;99.90;;;;;;4997726;28;20110;-71
2022/06/11 03:16:55;;;;;;;11.13;3.17;;;15.70;99.90;;;;;;5012374;28;20049;-71
2022/06/11 03:19:22;;;;;;;11.27;3.00;;;15.60;99.90;;;;;;5013174;28;20090;-71
2022/06/11 03:21:50;;;;;;;10.82;3.00;;;15.70;99.90;;;;;;5030715;28;20072;-72
2022/06/11 03:24:17;;;;;;;15.15;3.20;;;15.90;99.90;;;;;;5030111;28;20460;-70
2022/06/11 03:26:43;;;;;;;13.38;3.30;;;16.00;99.90;;;;;;5030921;28;20045;-70
2022/06/11 03:29:10;;;;;;;13.25;3.38;;;15.50;99.90;;;;;;4997331;28;20049;-71
2022/06/11 03:31:37;;;;;;;9.85;3.00;;;15.40;99.90;;;;;;5028475;28;20095;-71
2022/06/11 03:34:03;;;;;;;10.70;3.35;;;15.50;99.90;;;;;;5031037;28;20052;-70
2022/06/11 03:36:30;;;;;;;8.15;2.92;;;15.50;99.90;;;;;;5030105;28;20042;-70
2022/06/11 03:38:56;;;;;;;10.93;3.42;;;15.50;99.90;;;;;;5030274;28;20052;-70
2022/06/11 03:41:22;;;;;;;10.95;3.25;;;15.50;99.90;;;;;;5031105;28;20049;-70
2022/06/11 03:43:49;;;;;;;13.20;3.65;;;15.70;99.90;;;;;;5013061;28;20459;-71
2022/06/11 03:46:15;;;;;;;10.27;3.17;;;15.40;99.90;;;;;;5029098;28;20080;-70
2022/06/11 03:48:41;;;;;;;11.43;3.30;;;15.40;99.90;;;;;;5018057;28;20513;-71
2022/06/11 03:51:08;;;;;;;13.07;3.50;;;15.30;99.90;;;;;;5012053;28;20088;-71
2022/06/11 03:53:35;;;;;;;12.65;3.60;;;15.30;99.90;;;;;;5029300;28;20126;-71
2022/06/11 03:56:02;;;;;;;15.02;3.80;;;15.40;99.90;;;;;;5009833;28;20050;-71
2022/06/11 03:58:28;;;;;;;7.30;3.35;;;15.20;99.90;;;;;;4993172;28;20057;-71
2022/06/11 04:03:39;;;;;;;9.05;3.75;;;15.20;99.90;;;;;;5010798;28;20050;-71
2022/06/11 04:06:05;;;;;;;12.55;3.67;;;15.30;99.90;;;;;;5010169;28;20050;-71
2022/06/11 04:08:32;;;;;;;12.68;3.85;;;15.20;99.90;;;;;;5009136;28;20045;-71
2022/06/11 04:10:59;;;;;;;16.25;4.25;;;15.30;99.90;;;;;;4993295;28;20505;-71
2022/06/11 04:13:27;;;;;;;12.27;3.90;;;15.20;99.90;;;;;;5009619;28;20084;-71
2022/06/11 04:15:58;;;;;;;13.93;4.20;;;15.40;99.90;;;;;;5010265;28;20474;-71
2022/06/11 04:18:38;;;;;;;12.43;4.18;;;15.20;99.90;;;;;;5009633;28;20050;-71
2022/06/11 04:21:07;;;;;;;12.10;4.03;;;15.20;99.90;;;;;;4991305;28;20107;-71
2022/06/11 04:23:33;;;;;;;14.38;3.50;;;15.20;99.90;;;;;;4994618;28;20053;-71
2022/06/11 04:26:04;;;;;;;14.27;3.78;;;15.40;99.90;;;;;;4992451;28;20050;-71
2022/06/11 04:28:31;;;;;;;11.30;3.60;;;15.30;99.90;;;;;;5009803;28;20045;-71
2022/06/11 04:30:59;;;;;;;14.30;3.60;;;15.30;99.90;;;;;;4992263;28;20054;-71
2022/06/11 04:33:26;;;;;;;11.23;3.40;;;15.30;99.90;;;;;;5009791;28;20125;-71
2022/06/11 04:35:51;;;;;;;14.82;4.22;;;15.30;99.90;;;;;;5008794;28;20112;-70
2022/06/11 04:38:17;;;;;;;14.60;3.53;;;15.30;99.90;;;;;;5009715;28;20416;-71
2022/06/11 04:40:43;;;;;;;10.93;3.70;;;15.30;99.90;;;;;;5009817;28;20046;-70
2022/06/11 04:43:09;;;;;;;17.10;3.60;;;15.40;99.90;;;;;;5008770;28;20077;-71
2022/06/11 04:45:36;;;;;;;12.20;3.72;;;15.40;99.90;;;;;;5009250;28;20076;-71
2022/06/11 04:48:02;;;;;;;13.95;3.78;;;15.40;99.90;;;;;;5009417;28;20099;-71
2022/06/11 04:50:28;;;;;;;12.32;3.47;;;15.40;99.90;;;;;;5008857;28;20046;-71
2022/06/11 04:52:53;;;;;;;14.23;4.05;;;15.40;99.90;;;;;;5009472;28;20459;-71
2022/06/11 04:55:19;;;;;;;16.13;4.07;;;16.00;99.90;;;;;;5009344;28;20046;-71
2022/06/11 04:57:46;;;;;;;13.43;3.70;;;15.50;99.90;;;;;;5009903;28;20574;-71
2022/06/11 05:00:23;;;;;;;12.80;3.58;;;15.50;99.90;;;;;;4992976;28;20117;-71
2022/06/11 05:02:50;;;;;;;14.73;3.65;;;15.60;99.90;;;;;;5008847;28;20172;-71
2022/06/11 05:05:16;;;;;;;16.75;3.80;;;15.60;99.90;;;;;;5008470;28;20065;-70
2022/06/11 05:07:43;;;;;;;15.90;4.20;;;15.60;99.90;;;;;;5009152;28;20052;-70
2022/06/11 05:10:10;;;;;;;11.60;4.13;;;15.70;99.90;;;;;;4991000;28;20250;-71
2022/06/11 05:12:36;;;;;;;11.45;3.35;;;15.80;99.90;;;;;;4991765;28;20045;-71
2022/06/11 05:15:02;;;;;;;13.75;3.80;;;15.80;99.90;;;;;;5009380;28;20045;-71
2022/06/11 05:17:28;;;;;;;13.75;4.05;;;15.70;99.90;;;;;;4989814;28;20060;-71
2022/06/11 05:19:54;;;;;;;15.75;3.97;;;15.90;99.90;;;;;;5009556;28;20046;-71
2022/06/11 05:22:19;;;;;;;16.63;4.03;;;15.70;99.90;;;;;;4991215;28;20061;-70
2022/06/11 05:24:45;;;;;;;15.65;4.03;;;15.80;99.90;;;;;;4990622;28;20045;-71
2022/06/11 05:27:17;;;;;;;17.65;4.78;;;15.80;99.90;;;;;;5009004;28;20048;-72
2022/06/11 05:29:52;;;;;;;18.58;4.15;;;15.80;99.90;;;;;;4991494;28;20038;-71
2022/06/11 05:32:19;;;;;;;14.90;4.03;;;15.80;99.90;;;;;;4989896;28;20041;-72
2022/06/11 05:34:46;;;;;;;17.35;4.32;;;16.00;99.90;;;;;;5009082;28;20196;-71
2022/06/11 05:37:13;;;;;;;16.73;4.15;;;15.90;99.90;;;;;;5008647;28;20096;-72
2022/06/11 05:39:40;;;;;;;18.00;4.38;;;15.90;99.90;;;;;;5008163;28;20072;-72
2022/06/11 05:42:06;;;;;;;19.20;5.07;;;16.00;99.90;;;;;;5008802;28;20096;-72
2022/06/11 05:44:32;;;;;;;15.93;4.55;;;16.00;99.90;;;;;;5008796;28;20049;-71
2022/06/11 05:46:58;;;;;;;16.15;4.05;;;16.00;99.90;;;;;;5007529;28;20085;-71
2022/06/11 05:49:28;;;;;;;19.55;5.00;;;16.10;99.90;;;;;;5026057;28;20430;-71
2022/06/11 05:51:58;;;;;;;24.10;5.00;;;16.10;99.90;;;;;;5029728;28;20041;-71
2022/06/11 05:54:28;;;;;;;26.85;5.10;;;16.20;99.90;;;;;;5028191;28;20450;-71
2022/06/11 05:56:55;;;;;;;21.55;5.15;;;16.20;99.90;;;;;;5010980;28;20083;-71
2022/06/11 05:59:23;;;;;;;20.35;4.93;;;16.20;99.90;;;;;;5027645;28;20081;-71
2022/06/11 06:01:50;;;;;;;21.02;5.07;;;16.20;99.90;;;;;;5010258;28;20053;-71
2022/06/11 06:04:16;;;;;;;18.63;4.30;;;16.30;99.90;;;;;;5028451;28;20049;-71
2022/06/11 06:06:42;;;;;;;16.45;4.68;;;17.00;99.90;;;;;;5027373;28;20050;-70
2022/06/11 06:09:08;;;;;;;22.38;5.50;;;16.40;99.90;;;;;;5027556;28;20447;-70
2022/06/11 06:11:33;;;;;;;24.05;4.57;;;16.40;99.90;;;;;;5010641;28;20178;-71
2022/06/11 06:13:59;;;;;;;22.63;5.30;;;16.50;99.90;;;;;;5028036;28;20168;-71
2022/06/11 06:16:29;;;;;;;24.85;6.25;;;16.30;99.90;;;;;;5009508;28;20191;-71
2022/06/11 06:18:57;;;;;;;19.50;4.75;;;16.50;99.90;;;;;;5028682;28;20467;-71
2022/06/11 06:21:25;;;;;;;26.42;5.78;;;16.50;99.90;;;;;;5027205;28;20045;-71
2022/06/11 06:23:51;;;;;;;23.48;5.32;;;16.60;99.90;;;;;;5028029;28;20164;-71
2022/06/11 06:26:17;;;;;;;23.67;6.07;;;16.60;99.90;;;;;;5027392;28;20041;-71
2022/06/11 06:28:43;;;;;;;19.98;5.53;;;16.70;99.90;;;;;;5027715;28;20042;-71
2022/06/11 06:31:12;;;;;;;18.38;4.82;;;16.80;99.90;;;;;;5027017;28;20045;-72
2022/06/11 06:33:38;;;;;;;27.95;5.78;;;16.80;99.90;;;;;;5028015;28;20116;-72
2022/06/11 06:36:06;;;;;;;17.90;4.93;;;16.90;99.90;;;;;;5027342;28;20128;-72
2022/06/11 06:38:32;;;;;;;24.65;5.78;;;16.90;99.90;;;;;;5027844;28;20041;-72
2022/06/11 06:40:58;;;;;;;27.08;5.82;;;17.00;99.90;;;;;;5027504;28;20052;-72
2022/06/11 06:43:24;;;;;;;30.92;5.85;;;17.00;99.90;;;;;;5027499;28;20045;-72
2022/06/11 06:45:49;;;;;;;23.48;5.60;;;17.10;99.90;;;;;;5027113;28;20058;-71
2022/06/11 06:48:16;;;;;;;24.88;5.70;;;17.70;99.90;;;;;;5008427;28;20093;-72
2022/06/11 06:50:41;;;;;;;25.35;5.75;;;17.10;99.90;;;;;;5027675;28;20037;-72
2022/06/11 06:53:07;;;;;;;27.23;5.95;;;17.10;99.90;;;;;;5027659;28;20060;-72
2022/06/11 06:55:33;;;;;;;27.55;5.63;;;17.20;99.90;;;;;;5009142;28;20120;-72
2022/06/11 06:57:59;;;;;;;22.92;6.43;;;17.20;99.90;;;;;;5027936;28;20076;-72
2022/06/11 07:00:25;;;;;;;21.55;5.82;;;17.40;99.90;;;;;;5007345;28;20092;-72
2022/06/11 07:02:53;;;;;;;24.02;5.05;;;17.70;99.90;;;;;;5007236;28;20034;-70
2022/06/11 07:05:20;;;;;;;23.73;5.70;;;17.40;99.90;;;;;;5007697;28;20054;-71
2022/06/11 07:07:48;;;;;;;22.75;5.38;;;17.90;99.90;;;;;;4992569;28;20124;-71
2022/06/11 07:10:15;;;;;;;24.85;5.72;;;17.70;99.90;;;;;;5011185;28;20115;-71
2022/06/11 07:12:40;;;;;;;24.55;6.10;;;17.80;99.90;;;;;;5010992;28;20056;-71
2022/06/11 07:15:07;;;;;;;23.77;5.28;;;17.90;99.90;;;;;;5002982;28;20476;-71
2022/06/11 07:17:39;;;;;;;26.42;5.85;;;18.00;99.90;;;;;;5011586;28;20041;-72
2022/06/11 07:20:10;;;;;;;24.08;5.32;;;18.10;99.90;;;;;;5030901;28;20459;-71
2022/06/11 07:22:46;;;;;;;24.35;5.57;;;18.20;99.90;;;;;;5011893;28;20057;-71
2022/06/11 07:25:12;;;;;;;21.60;5.60;;;18.20;99.90;;;;;;5030652;28;20049;-71
2022/06/11 07:27:45;;;;;;;24.60;5.72;;;18.20;99.90;;;;;;5030994;28;20052;-72
2022/06/11 07:30:15;;;;;;;20.58;5.45;;;18.20;99.90;;;;;;5029933;28;20045;-71
2022/06/11 07:32:44;;;;;;;23.17;5.22;;;18.20;99.90;;;;;;5014231;28;20135;-70
2022/06/11 07:35:13;;;;;;;22.50;5.50;;;18.20;99.90;;;;;;5029688;28;20199;-72
2022/06/11 07:37:40;;;;;;;25.40;5.65;;;18.40;99.90;;;;;;5031076;28;20037;-72
2022/06/11 07:40:07;;;;;;;24.65;5.35;;;18.30;99.90;;;;;;5033069;28;20037;-72
2022/06/11 07:42:33;;;;;;;22.42;5.38;;;18.30;99.90;;;;;;4995924;28;20048;-72
2022/06/11 07:44:59;;;;;;;25.00;5.55;;;18.40;99.90;;;;;;5030590;28;20390;-73
2022/06/11 07:50:11;;;;;;;20.48;4.47;;;18.70;99.90;;;;;;5029646;28;20164;-72
2022/06/11 07:52:41;;;;;;;17.73;4.15;;;18.80;99.90;;;;;;5029904;28;20092;-72
2022/06/11 07:55:07;;;;;;;21.63;5.13;;;18.90;99.90;;;;;;5012666;28;20067;-73
2022/06/11 07:57:33;;;;;;;22.80;5.25;;;19.00;99.90;;;;;;5013144;28;20041;-72
2022/06/11 08:00:00;;;;;;;19.63;4.60;;;19.00;99.90;;;;;;5016371;28;20056;-72
2022/06/11 08:02:25;;;;;;;17.60;4.65;;;19.10;99.90;;;;;;5009671;28;20045;-72
2022/06/11 08:04:51;;;;;;;19.95;4.28;;;19.20;99.90;;;;;;5008945;28;20044;-71
2022/06/11 08:07:17;;;;;;;22.33;5.45;;;19.20;99.90;;;;;;5010250;28;20042;-71
2022/06/11 08:09:43;;;;;;;21.08;4.93;;;19.30;99.90;;;;;;5010014;28;20438;-71
2022/06/11 08:12:09;;;;;;;19.73;4.82;;;19.30;99.90;;;;;;5008947;28;20063;-71
2022/06/11 08:14:34;;;;;;;19.17;4.55;;;19.30;99.90;;;;;;4996879;28;20054;-72
2022/06/11 08:17:00;;;;;;;23.63;5.07;;;19.60;99.90;;;;;;5031392;28;20059;-72
2022/06/11 08:19:26;;;;;;;20.50;4.25;;;19.30;99.90;;;;;;5031812;28;20049;-72
2022/06/11 08:21:51;;;;;;;25.27;5.65;;;19.50;99.90;;;;;;5029991;28;20433;-72
2022/06/11 08:24:17;;;;;;;19.25;4.40;;;19.80;99.90;;;;;;5011143;28;20108;-71
2022/06/11 08:26:43;;;;;;;18.48;4.07;;;19.50;99.90;;;;;;5029309;28;20042;-73
2022/06/11 08:29:08;;;;;;;20.83;4.57;;;19.50;99.90;;;;;;5029780;28;20045;-73
2022/06/11 08:31:34;;;;;;;19.10;4.32;;;19.70;99.90;;;;;;5030304;28;20509;-72
2022/06/11 08:33:59;;;;;;;17.27;4.13;;;19.80;99.90;;;;;;5030057;28;20037;-73
2022/06/11 08:36:25;;;;;;;20.48;4.28;;;19.80;99.90;;;;;;5010219;28;20175;-73
2022/06/11 08:38:51;;;;;;;21.05;4.32;;;19.80;99.90;;;;;;5028442;28;20410;-73
2022/06/11 08:41:20;;;;;;;22.05;4.60;;;19.90;99.90;;;;;;5029209;28;20136;-73
2022/06/11 08:44:08;;;;;;;19.48;4.60;;;19.90;99.90;;;;;;5011780;28;20505;-73
2022/06/11 08:46:36;;;;;;;18.60;4.50;;;20.00;99.90;;;;;;5028092;28;20386;-73
2022/06/11 08:49:05;;;;;;;21.13;4.60;;;20.00;99.90;;;;;;5014069;28;20487;-73
2022/06/11 08:51:55;;;;;;;27.63;5.43;;;20.00;99.90;;;;;;5008947;28;20076;-73
2022/06/11 08:54:25;;;;;;;21.48;4.43;;;19.90;99.90;;;;;;5008125;28;20146;-73
2022/06/11 08:57:09;;;;;;;17.77;4.45;;;19.90;99.90;;;;;;5010132;28;20070;-73
2022/06/11 09:00:15;;;;;;;18.08;4.60;;;20.00;99.90;;;;;;4992385;28;20054;-72
2022/06/11 09:02:59;;;;;;;22.98;4.63;;;20.20;99.90;;;;;;5008565;28;20052;-73
2022/06/11 09:05:36;;;;;;;14.75;3.65;;;20.20;99.90;;;;;;5008728;28;20085;-73
2022/06/11 09:08:29;;;;;;;23.63;4.88;;;20.30;99.90;;;;;;5008505;28;20180;-72
2022/06/11 09:11:21;;;;;;;21.38;4.25;;;20.40;99.90;;;;;;5009566;28;20041;-73
2022/06/11 09:14:01;;;;;;;16.10;4.13;;;20.50;99.90;;;;;;4990444;28;20048;-73
2022/06/11 09:16:51;;;;;;;18.00;4.53;;;20.50;99.90;;;;;;5007829;28;20517;-73
2022/06/11 09:19:33;;;;;;;18.35;4.45;;;20.50;99.90;;;;;;5009167;28;20054;-73
2022/06/11 09:22:25;;;;;;;15.40;3.95;;;20.60;99.90;;;;;;5008337;28;20053;-72
2022/06/11 09:25:21;;;;;;;15.40;4.10;;;20.50;99.90;;;;;;5009007;28;20122;-71
2022/06/11 09:27:59;;;;;;;;;;;20.70;99.90;;;;;;5008708;28;20103;-71
2022/06/11 09:30:41;;;;;;;15.18;3.58;;;20.60;99.90;;;;;;4989590;28;19960;-72
2022/06/11 09:33:18;;;;;;;17.63;4.18;;;20.70;99.90;;;;;;5009449;28;20058;-71
2022/06/11 09:35:50;;;;;;;16.70;3.75;;;20.70;99.90;;;;;;4990655;28;20045;-72
2022/06/11 09:38:34;;;;;;;17.08;3.80;;;20.70;99.90;;;;;;4990693;28;20053;-72
2022/06/11 09:41:33;;;;;;;15.40;3.72;;;20.80;99.90;;;;;;5009097;28;20054;-72
2022/06/11 09:44:03;;;;;;;14.10;3.88;;;21.00;99.90;;;;;;4990842;28;20053;-72
2022/06/11 09:46:32;;;;;;;13.35;3.42;;;21.10;99.90;;;;;;4990143;28;20064;-72
2022/06/11 09:49:04;;;;;;;13.52;3.40;;;21.20;99.90;;;;;;5008038;28;20077;-72
2022/06/11 09:51:40;;;;;;;13.23;3.67;;;21.10;99.90;;;;;;5008375;28;20494;-72
2022/06/11 09:54:50;;;;;;;14.73;3.33;;;21.20;99.90;;;;;;4976575;28;20056;-72
2022/06/11 09:57:50;;;;;;;15.20;3.53;;;21.30;99.90;;;;;;4986800;28;20050;-72
2022/06/11 10:00:33;;;;;;;13.23;3.50;;;21.60;99.90;;;;;;5008190;28;20041;-72
2022/06/11 10:03:35;;;;;;;14.30;3.05;;;22.00;99.90;;;;;;4989886;28;20046;-73
2022/06/11 10:06:19;;;;;;;14.45;3.10;;;22.40;99.90;;;;;;5006864;28;20053;-72
2022/06/11 10:09:22;;;;;;;11.30;2.72;;;23.70;97.60;;;;;;4990272;28;20132;-72
2022/06/11 10:12:25;;;;;;;12.70;3.08;;;25.70;94.90;;;;;;4927390;29;20592;-73
2022/06/11 10:15:00;;;;;;;11.85;3.08;;;26.30;92.90;;;;;;5008504;28;20479;-72
2022/06/11 10:17:44;;;;;;;13.38;3.00;;;27.00;92.30;;;;;;5006755;28;20060;-72
2022/06/11 10:20:37;;;;;;;13.07;3.47;;;27.80;90.60;;;;;;5007914;28;20053;-72
2022/06/11 10:23:16;;;;;;;13.30;3.13;;;27.30;88.80;;;;;;5007582;28;20057;-72
2022/06/11 10:25:54;;;;;;;11.65;2.95;;;27.40;90.90;;;;;;4989455;28;20057;-73
2022/06/11 10:28:31;;;;;;;14.23;3.55;;;27.20;88.80;;;;;;5007784;28;20054;-73
2022/06/11 10:31:04;;;;;;;15.30;3.85;;;27.40;89.60;;;;;;5008200;28;20054;-73
2022/06/11 10:33:44;;;;;;;9.82;2.70;;;28.40;88.40;;;;;;5008019;28;20125;-73
2022/06/11 10:36:25;;;;;;;15.48;4.07;;;28.90;86.10;;;;;;5007436;28;20108;-73
2022/06/11 10:39:05;;;;;;;14.65;2.95;;;28.50;85.50;;;;;;5006360;28;20049;-72
2022/06/11 10:41:55;;;;;;;9.77;2.80;;;27.40;86.70;;;;;;4992260;28;20046;-73
2022/06/11 10:44:44;;;;;;;14.55;3.47;;;27.30;89.60;;;;;;4978211;28;20141;-71
2022/06/11 10:47:18;;;;;;;12.35;3.22;;;28.40;88.70;;;;;;5010141;28;20104;-72
2022/06/11 10:49:46;;;;;;;13.35;3.10;;;30.60;84.20;;;;;;5012864;28;20057;-72
2022/06/11 10:52:48;;;;;;;9.65;2.90;;;31.80;81.10;;;;;;5030457;28;20046;-72
2022/06/11 10:55:21;;;;;;;10.68;2.83;;;32.40;78.00;;;;;;5013913;28;20053;-72
2022/06/11 10:57:52;;;;;;;11.85;2.90;;;32.40;72.00;;;;;;5030812;28;20045;-72
2022/06/11 11:00:19;;;;;;;11.40;2.80;;;31.90;72.00;;;;;;5030288;28;20124;-72
2022/06/11 11:02:57;;;;;;;8.77;2.58;;;31.20;69.60;;;;;;5012510;28;20041;-72
2022/06/11 11:05:22;;;;;;;10.70;2.75;;;30.60;72.60;;;;;;5012732;28;20042;-72
2022/06/11 11:07:54;;;;;;;9.00;2.67;;;29.60;72.60;;;;;;5030032;28;20426;-72
2022/06/11 11:10:40;;;;;;;9.77;2.85;;;29.00;72.00;;;;;;5012734;28;20064;-73
2022/06/11 11:13:15;;;;;;;12.82;2.83;;;27.90;72.90;;;;;;5029679;28;20056;-72
2022/06/11 11:15:45;;;;;;;10.60;2.97;;;26.80;75.90;;;;;;5024580;28;20150;-72
2022/06/11 11:18:21;;;;;;;11.98;3.20;;;26.40;77.50;;;;;;4993808;28;20038;-72
2022/06/11 11:20:50;;;;;;;11.25;3.10;;;26.30;77.00;;;;;;4992003;28;20076;-72
2022/06/11 11:23:23;;;;;;;12.32;3.05;;;26.00;78.50;;;;;;5010380;28;20565;-71
2022/06/11 11:26:35;;;;;;;13.95;3.20;;;26.40;79.80;;;;;;5011124;28;20068;-72
2022/06/11 11:29:45;;;;;;;11.80;2.80;;;27.50;78.80;;;;;;4966268;28;20065;-72
2022/06/11 11:32:37;;;;;;;15.15;3.40;;;29.10;78.30;;;;;;4991873;28;20396;-72
2022/06/11 11:35:27;;;;;;;12.38;3.10;;;30.40;74.70;;;;;;5009892;28;20068;-72
2022/06/11 11:38:00;;;;;;;9.63;3.13;;;31.80;74.30;;;;;;4992595;28;20488;-72
2022/06/11 11:40:50;;;;;;;14.30;3.33;;;33.10;69.80;;;;;;5010492;28;20041;-73
2022/06/11 11:43:16;;;;;;;10.60;2.70;;;33.10;67.40;;;;;;5009219;28;20053;-72
2022/06/11 11:45:57;;;;;;;13.10;2.80;;;33.10;66.00;;;;;;5009911;28;20049;-72
2022/06/11 11:48:43;;;;;;;9.75;2.88;;;33.10;65.50;;;;;;4997498;28;20049;-72
2022/06/11 11:51:27;;;;;;;13.75;3.22;;;32.30;63.50;;;;;;5007770;28;20045;-72
2022/06/11 11:54:06;;;;;;;8.48;3.03;;;31.20;64.70;;;;;;5008680;28;20096;-72
2022/06/11 11:56:41;;;;;;;9.25;2.90;;;31.50;64.40;;;;;;4991959;28;20061;-72
2022/06/11 11:59:30;;;;;;;10.00;2.70;;;31.40;65.60;;;;;;5010467;28;20475;-73
2022/06/11 12:02:04;;;;;;;11.60;3.08;;;30.80;65.20;;;;;;5009553;28;20408;-72
2022/06/11 12:04:38;;;;;;;11.88;3.00;;;30.00;66.20;;;;;;4990702;28;20103;-72
2022/06/11 12:07:07;;;;;;;11.75;2.90;;;30.50;65.90;;;;;;5009525;28;20217;-72
2022/06/11 12:09:37;;;;;;;12.32;2.78;;;29.90;66.10;;;;;;5008951;28;20061;-74
2022/06/11 12:12:29;;;;;;;10.95;2.60;;;29.60;64.40;;;;;;5009999;28;20038;-74
2022/06/11 12:14:58;;;;;;;10.82;2.47;;;28.40;66.50;;;;;;5010118;28;20053;-72
2022/06/11 12:17:49;;;;;;;8.15;2.03;;;27.50;67.30;;;;;;5018728;28;20049;-72
2022/06/11 12:20:30;;;;;;;9.77;2.65;;;26.50;68.40;;;;;;5030052;28;20459;-72
2022/06/11 12:23:05;;;;;;;11.02;2.60;;;25.90;69.80;;;;;;5028915;28;20059;-72
2022/06/11 12:25:49;;;;;;;9.00;2.30;;;25.40;71.90;;;;;;5028374;28;20049;-73
2022/06/11 12:28:18;;;;;;;7.65;2.50;;;24.90;72.40;;;;;;5028621;28;20398;-73
2022/06/11 12:30:44;;;;;;;9.63;2.38;;;24.60;73.40;;;;;;5028172;28;20413;-72
2022/06/11 12:33:14;;;;;;;9.98;2.38;;;24.40;74.40;;;;;;5030551;28;20037;-72
2022/06/11 12:35:52;;;;;;;7.75;2.40;;;24.20;75.00;;;;;;5029580;28;20072;-72
2022/06/11 12:38:44;;;;;;;9.85;2.58;;;24.10;75.40;;;;;;5014120;28;20065;-72
2022/06/11 12:41:31;;;;;;;12.00;2.67;;;24.00;76.10;;;;;;5009720;28;20100;-72
2022/06/11 12:44:22;;;;;;;8.55;2.40;;;24.00;77.70;;;;;;5009665;28;20446;-72
2022/06/11 12:47:03;;;;;;;9.70;2.72;;;24.10;77.90;;;;;;5009054;28;20141;-73
2022/06/11 12:49:43;;;;;;;9.40;2.60;;;24.10;78.80;;;;;;5010136;28;20458;-72
2022/06/11 12:52:27;;;;;;;11.45;2.67;;;24.10;79.30;;;;;;4990179;28;20247;-72
2022/06/11 12:55:27;;;;;;;10.88;2.42;;;23.90;78.30;;;;;;4991280;28;20038;-71
2022/06/11 12:58:03;;;;;;;10.32;2.42;;;23.90;80.10;;;;;;5007518;28;20081;-71
2022/06/11 13:00:44;;;;;;;7.97;2.55;;;23.80;80.00;;;;;;5007891;28;20130;-72
2022/06/11 13:03:45;;;;;;;10.93;2.80;;;23.60;80.90;;;;;;4974532;28;20085;-71
2022/06/11 13:06:26;;;;;;;7.40;2.25;;;23.60;82.50;;;;;;4990281;28;20049;-72
2022/06/11 13:09:25;;;;;;;11.45;2.60;;;23.60;82.90;;;;;;5009120;28;20034;-72
2022/06/11 13:12:19;;;;;;;9.40;2.38;;;23.50;84.30;;;;;;5008729;28;20050;-72
2022/06/11 13:14:50;;;;;;;12.35;2.85;;;23.60;84.50;;;;;;5008727;28;20144;-72